LFPM 041800Z AUTO 20010KT 7000 RA FEW015/// OVC025/// ///CB 05/03 Q0987

Les avions qui composent notre flotte

Avion Robin DR400-120

Avion école

F-BVMQ
   * tarif promotionnel appliqué pendant la formation des élèves non brevetés


F-BVMQ Planche